KFVE 221153Z AUTO 34010KT 10SM CLR M14/M19 A3058 RMK AO2 SLP370 70001 T11441189 11106 21144 53022